sensor_id;sensor_type;location;lat;lon;timestamp;P1;durP1;ratioP1;P2;durP2;ratioP2
77217;SDS011;66214;51.302;17.068;2024-01-11T00:01:35;122.80;;;46.10;;
77217;SDS011;66214;51.302;17.068;2024-01-11T00:04:03;114.50;;;42.80;;
77217;SDS011;66214;51.302;17.068;2024-01-11T00:06:43;129.30;;;45.70;;
77217;SDS011;66214;51.302;17.068;2024-01-11T00:09:12;130.40;;;46.60;;
77217;SDS011;66214;51.302;17.068;2024-01-11T00:11:40;132.80;;;48.10;;
77217;SDS011;66214;51.302;17.068;2024-01-11T00:14:08;132.80;;;49.20;;
77217;SDS011;66214;51.302;17.068;2024-01-11T00:16:37;126.70;;;44.90;;
77217;SDS011;66214;51.302;17.068;2024-01-11T00:19:05;114.30;;;42.40;;
77217;SDS011;66214;51.302;17.068;2024-01-11T00:21:34;66.40;;;27.70;;
77217;SDS011;66214;51.302;17.068;2024-01-11T00:24:02;92.20;;;33.20;;
77217;SDS011;66214;51.302;17.068;2024-01-11T00:26:31;46.10;;;18.60;;
77217;SDS011;66214;51.302;17.068;2024-01-11T00:28:59;80.90;;;27.30;;
77217;SDS011;66214;51.302;17.068;2024-01-11T00:31:28;112.80;;;41.40;;
77217;SDS011;66214;51.302;17.068;2024-01-11T00:33:57;111.00;;;40.50;;
77217;SDS011;66214;51.302;17.068;2024-01-11T00:36:29;108.70;;;41.40;;
77217;SDS011;66214;51.302;17.068;2024-01-11T00:39:01;121.50;;;43.10;;
77217;SDS011;66214;51.302;17.068;2024-01-11T00:41:29;107.00;;;40.60;;
77217;SDS011;66214;51.302;17.068;2024-01-11T00:43:58;107.40;;;41.00;;
77217;SDS011;66214;51.302;17.068;2024-01-11T00:46:26;117.60;;;41.90;;
77217;SDS011;66214;51.302;17.068;2024-01-11T00:48:55;106.80;;;42.60;;
77217;SDS011;66214;51.302;17.068;2024-01-11T00:51:26;118.40;;;44.20;;
77217;SDS011;66214;51.302;17.068;2024-01-11T00:53:55;108.70;;;40.40;;
77217;SDS011;66214;51.302;17.068;2024-01-11T00:56:26;105.30;;;39.70;;
77217;SDS011;66214;51.302;17.068;2024-01-11T00:58:54;110.70;;;42.30;;
77217;SDS011;66214;51.302;17.068;2024-01-11T01:01:23;104.40;;;38.60;;
77217;SDS011;66214;51.302;17.068;2024-01-11T01:03:51;107.30;;;39.00;;
77217;SDS011;66214;51.302;17.068;2024-01-11T01:06:19;105.30;;;39.60;;
77217;SDS011;66214;51.302;17.068;2024-01-11T01:08:50;109.30;;;40.00;;
77217;SDS011;66214;51.302;17.068;2024-01-11T01:11:18;106.60;;;38.50;;
77217;SDS011;66214;51.302;17.068;2024-01-11T01:13:49;102.60;;;38.10;;
77217;SDS011;66214;51.302;17.068;2024-01-11T01:16:18;112.30;;;41.90;;
77217;SDS011;66214;51.302;17.068;2024-01-11T01:18:48;114.80;;;40.90;;
77217;SDS011;66214;51.302;17.068;2024-01-11T01:21:16;102.50;;;37.70;;
77217;SDS011;66214;51.302;17.068;2024-01-11T01:23:46;112.30;;;38.90;;
77217;SDS011;66214;51.302;17.068;2024-01-11T01:26:14;105.70;;;38.60;;
77217;SDS011;66214;51.302;17.068;2024-01-11T01:28:43;111.70;;;40.20;;
77217;SDS011;66214;51.302;17.068;2024-01-11T01:31:12;106.70;;;39.60;;
77217;SDS011;66214;51.302;17.068;2024-01-11T01:34:07;72.40;;;27.80;;
77217;SDS011;66214;51.302;17.068;2024-01-11T01:36:37;99.90;;;35.90;;
77217;SDS011;66214;51.302;17.068;2024-01-11T01:39:05;85.80;;;31.70;;
77217;SDS011;66214;51.302;17.068;2024-01-11T01:41:37;85.70;;;35.90;;
77217;SDS011;66214;51.302;17.068;2024-01-11T01:44:05;109.10;;;39.50;;
77217;SDS011;66214;51.302;17.068;2024-01-11T01:46:34;107.70;;;40.80;;
77217;SDS011;66214;51.302;17.068;2024-01-11T01:49:03;110.40;;;41.40;;
77217;SDS011;66214;51.302;17.068;2024-01-11T01:51:32;109.90;;;41.50;;
77217;SDS011;66214;51.302;17.068;2024-01-11T01:54:02;119.10;;;43.10;;
77217;SDS011;66214;51.302;17.068;2024-01-11T01:56:36;104.50;;;40.90;;
77217;SDS011;66214;51.302;17.068;2024-01-11T01:59:04;102.40;;;38.40;;
77217;SDS011;66214;51.302;17.068;2024-01-11T02:05:02;116.30;;;42.50;;
77217;SDS011;66214;51.302;17.068;2024-01-11T02:07:31;104.10;;;39.60;;
77217;SDS011;66214;51.302;17.068;2024-01-11T02:10:01;102.40;;;39.10;;
77217;SDS011;66214;51.302;17.068;2024-01-11T02:12:30;79.70;;;28.30;;
77217;SDS011;66214;51.302;17.068;2024-01-11T02:14:59;88.20;;;32.50;;
77217;SDS011;66214;51.302;17.068;2024-01-11T02:17:27;102.40;;;38.40;;
77217;SDS011;66214;51.302;17.068;2024-01-11T02:19:56;100.60;;;38.30;;
77217;SDS011;66214;51.302;17.068;2024-01-11T02:22:29;73.70;;;28.40;;
77217;SDS011;66214;51.302;17.068;2024-01-11T02:25:00;67.90;;;24.40;;
77217;SDS011;66214;51.302;17.068;2024-01-11T02:27:29;89.20;;;35.70;;
77217;SDS011;66214;51.302;17.068;2024-01-11T02:29:58;71.20;;;25.70;;
77217;SDS011;66214;51.302;17.068;2024-01-11T02:32:27;98.20;;;35.40;;
77217;SDS011;66214;51.302;17.068;2024-01-11T02:34:56;63.70;;;25.40;;
77217;SDS011;66214;51.302;17.068;2024-01-11T02:37:26;79.70;;;30.20;;
77217;SDS011;66214;51.302;17.068;2024-01-11T02:39:56;79.00;;;30.40;;
77217;SDS011;66214;51.302;17.068;2024-01-11T02:42:25;74.00;;;29.90;;
77217;SDS011;66214;51.302;17.068;2024-01-11T02:44:55;72.50;;;31.40;;
77217;SDS011;66214;51.302;17.068;2024-01-11T02:47:23;73.30;;;28.50;;
77217;SDS011;66214;51.302;17.068;2024-01-11T02:49:51;77.80;;;29.60;;
77217;SDS011;66214;51.302;17.068;2024-01-11T02:52:20;71.60;;;26.90;;
77217;SDS011;66214;51.302;17.068;2024-01-11T02:54:50;40.30;;;15.40;;
77217;SDS011;66214;51.302;17.068;2024-01-11T02:57:19;53.20;;;20.00;;
77217;SDS011;66214;51.302;17.068;2024-01-11T02:59:49;48.10;;;18.20;;
77217;SDS011;66214;51.302;17.068;2024-01-11T03:02:19;72.50;;;28.00;;
77217;SDS011;66214;51.302;17.068;2024-01-11T03:04:48;64.10;;;27.10;;
77217;SDS011;66214;51.302;17.068;2024-01-11T03:07:16;58.20;;;24.90;;
77217;SDS011;66214;51.302;17.068;2024-01-11T03:09:45;71.70;;;28.40;;
77217;SDS011;66214;51.302;17.068;2024-01-11T03:12:13;66.50;;;27.10;;
77217;SDS011;66214;51.302;17.068;2024-01-11T03:14:41;69.60;;;27.90;;
77217;SDS011;66214;51.302;17.068;2024-01-11T03:17:12;58.50;;;22.20;;
77217;SDS011;66214;51.302;17.068;2024-01-11T03:19:40;81.20;;;31.40;;
77217;SDS011;66214;51.302;17.068;2024-01-11T03:22:09;44.20;;;17.90;;
77217;SDS011;66214;51.302;17.068;2024-01-11T03:24:38;77.90;;;30.30;;
77217;SDS011;66214;51.302;17.068;2024-01-11T03:27:09;68.80;;;26.00;;
77217;SDS011;66214;51.302;17.068;2024-01-11T03:29:38;67.00;;;26.40;;
77217;SDS011;66214;51.302;17.068;2024-01-11T03:32:06;65.00;;;26.20;;
77217;SDS011;66214;51.302;17.068;2024-01-11T03:34:35;71.20;;;28.60;;
77217;SDS011;66214;51.302;17.068;2024-01-11T03:37:03;83.90;;;29.30;;
77217;SDS011;66214;51.302;17.068;2024-01-11T03:39:33;83.10;;;32.20;;
77217;SDS011;66214;51.302;17.068;2024-01-11T03:45:29;82.90;;;31.40;;
77217;SDS011;66214;51.302;17.068;2024-01-11T03:47:59;83.00;;;33.30;;
77217;SDS011;66214;51.302;17.068;2024-01-11T03:50:30;73.30;;;29.80;;
77217;SDS011;66214;51.302;17.068;2024-01-11T03:52:59;81.30;;;30.40;;
77217;SDS011;66214;51.302;17.068;2024-01-11T03:55:28;74.60;;;31.30;;
77217;SDS011;66214;51.302;17.068;2024-01-11T03:57:56;72.40;;;29.20;;
77217;SDS011;66214;51.302;17.068;2024-01-11T04:00:25;72.50;;;26.20;;
77217;SDS011;66214;51.302;17.068;2024-01-11T04:02:54;80.20;;;27.80;;
77217;SDS011;66214;51.302;17.068;2024-01-11T04:05:23;77.80;;;28.00;;
77217;SDS011;66214;51.302;17.068;2024-01-11T04:07:52;69.50;;;25.40;;
77217;SDS011;66214;51.302;17.068;2024-01-11T04:10:21;67.70;;;26.20;;
77217;SDS011;66214;51.302;17.068;2024-01-11T04:12:50;73.40;;;28.30;;
77217;SDS011;66214;51.302;17.068;2024-01-11T04:15:19;71.50;;;27.20;;
77217;SDS011;66214;51.302;17.068;2024-01-11T04:17:48;65.00;;;24.50;;
77217;SDS011;66214;51.302;17.068;2024-01-11T04:23:47;65.10;;;24.70;;
77217;SDS011;66214;51.302;17.068;2024-01-11T04:26:17;50.70;;;21.70;;
77217;SDS011;66214;51.302;17.068;2024-01-11T04:28:46;58.20;;;20.90;;
77217;SDS011;66214;51.302;17.068;2024-01-11T04:31:16;48.20;;;19.00;;
77217;SDS011;66214;51.302;17.068;2024-01-11T04:33:46;39.20;;;15.90;;
77217;SDS011;66214;51.302;17.068;2024-01-11T04:36:15;48.30;;;18.10;;
77217;SDS011;66214;51.302;17.068;2024-01-11T04:38:43;40.00;;;15.20;;
77217;SDS011;66214;51.302;17.068;2024-01-11T04:41:15;39.80;;;15.30;;
77217;SDS011;66214;51.302;17.068;2024-01-11T04:43:45;50.30;;;19.00;;
77217;SDS011;66214;51.302;17.068;2024-01-11T04:46:14;52.80;;;20.40;;
77217;SDS011;66214;51.302;17.068;2024-01-11T04:48:46;44.80;;;17.10;;
77217;SDS011;66214;51.302;17.068;2024-01-11T04:51:16;47.30;;;17.20;;
77217;SDS011;66214;51.302;17.068;2024-01-11T04:53:46;42.50;;;16.60;;
77217;SDS011;66214;51.302;17.068;2024-01-11T04:56:16;33.40;;;12.20;;
77217;SDS011;66214;51.302;17.068;2024-01-11T04:58:47;38.40;;;14.00;;
77217;SDS011;66214;51.302;17.068;2024-01-11T05:03:46;33.80;;;14.10;;
77217;SDS011;66214;51.302;17.068;2024-01-11T05:06:21;31.90;;;13.40;;
77217;SDS011;66214;51.302;17.068;2024-01-11T05:08:51;31.50;;;12.00;;
77217;SDS011;66214;51.302;17.068;2024-01-11T05:11:22;36.60;;;13.40;;
77217;SDS011;66214;51.302;17.068;2024-01-11T05:13:54;34.30;;;12.80;;
77217;SDS011;66214;51.302;17.068;2024-01-11T05:16:24;38.90;;;15.40;;
77217;SDS011;66214;51.302;17.068;2024-01-11T05:18:56;41.90;;;18.30;;
77217;SDS011;66214;51.302;17.068;2024-01-11T05:21:25;42.40;;;16.40;;
77217;SDS011;66214;51.302;17.068;2024-01-11T05:23:54;38.50;;;14.20;;
77217;SDS011;66214;51.302;17.068;2024-01-11T05:26:25;24.20;;;9.70;;
77217;SDS011;66214;51.302;17.068;2024-01-11T05:28:54;34.50;;;13.80;;
77217;SDS011;66214;51.302;17.068;2024-01-11T05:31:22;30.40;;;11.20;;
77217;SDS011;66214;51.302;17.068;2024-01-11T05:33:54;33.90;;;13.10;;
77217;SDS011;66214;51.302;17.068;2024-01-11T05:36:22;25.80;;;8.70;;
77217;SDS011;66214;51.302;17.068;2024-01-11T05:38:51;26.30;;;10.80;;
77217;SDS011;66214;51.302;17.068;2024-01-11T05:41:19;32.70;;;13.00;;
77217;SDS011;66214;51.302;17.068;2024-01-11T05:43:49;35.90;;;14.20;;
77217;SDS011;66214;51.302;17.068;2024-01-11T05:46:19;32.80;;;12.10;;
77217;SDS011;66214;51.302;17.068;2024-01-11T05:48:49;34.50;;;14.50;;
77217;SDS011;66214;51.302;17.068;2024-01-11T05:51:18;43.70;;;16.60;;
77217;SDS011;66214;51.302;17.068;2024-01-11T05:53:47;38.30;;;15.50;;
77217;SDS011;66214;51.302;17.068;2024-01-11T05:56:16;37.30;;;13.90;;
77217;SDS011;66214;51.302;17.068;2024-01-11T05:58:47;42.40;;;15.60;;
77217;SDS011;66214;51.302;17.068;2024-01-11T06:01:15;37.50;;;14.50;;
77217;SDS011;66214;51.302;17.068;2024-01-11T06:03:44;36.10;;;14.60;;
77217;SDS011;66214;51.302;17.068;2024-01-11T06:06:19;29.00;;;12.90;;
77217;SDS011;66214;51.302;17.068;2024-01-11T06:08:47;39.10;;;14.60;;
77217;SDS011;66214;51.302;17.068;2024-01-11T06:11:16;30.90;;;11.70;;
77217;SDS011;66214;51.302;17.068;2024-01-11T06:13:46;42.70;;;15.30;;
77217;SDS011;66214;51.302;17.068;2024-01-11T06:16:15;35.10;;;12.70;;
77217;SDS011;66214;51.302;17.068;2024-01-11T06:18:43;40.10;;;16.70;;
77217;SDS011;66214;51.302;17.068;2024-01-11T06:21:12;41.40;;;14.80;;
77217;SDS011;66214;51.302;17.068;2024-01-11T08:03:44;30.90;;;10.90;;
77217;SDS011;66214;51.302;17.068;2024-01-11T08:06:14;35.90;;;13.20;;
77217;SDS011;66214;51.302;17.068;2024-01-11T08:08:43;30.10;;;11.30;;
77217;SDS011;66214;51.302;17.068;2024-01-11T08:11:15;32.50;;;11.70;;
77217;SDS011;66214;51.302;17.068;2024-01-11T08:14:11;35.20;;;13.00;;
77217;SDS011;66214;51.302;17.068;2024-01-11T08:16:40;25.30;;;9.70;;
77217;SDS011;66214;51.302;17.068;2024-01-11T08:19:11;28.10;;;11.00;;
77217;SDS011;66214;51.302;17.068;2024-01-11T08:21:42;29.80;;;12.40;;
77217;SDS011;66214;51.302;17.068;2024-01-11T08:24:13;34.20;;;12.80;;
77217;SDS011;66214;51.302;17.068;2024-01-11T08:26:43;34.20;;;13.50;;
77217;SDS011;66214;51.302;17.068;2024-01-11T08:29:14;35.90;;;12.80;;
77217;SDS011;66214;51.302;17.068;2024-01-11T08:31:50;31.10;;;11.90;;
77217;SDS011;66214;51.302;17.068;2024-01-11T08:34:19;30.90;;;9.60;;
77217;SDS011;66214;51.302;17.068;2024-01-11T08:36:53;28.70;;;10.90;;
77217;SDS011;66214;51.302;17.068;2024-01-11T08:39:23;31.00;;;12.50;;
77217;SDS011;66214;51.302;17.068;2024-01-11T08:41:52;22.40;;;8.50;;
77217;SDS011;66214;51.302;17.068;2024-01-11T08:44:21;26.20;;;10.20;;
77217;SDS011;66214;51.302;17.068;2024-01-11T08:46:49;33.10;;;12.70;;
77217;SDS011;66214;51.302;17.068;2024-01-11T08:49:18;22.60;;;8.90;;
77217;SDS011;66214;51.302;17.068;2024-01-11T08:51:58;25.20;;;10.30;;
77217;SDS011;66214;51.302;17.068;2024-01-11T08:54:30;29.20;;;11.50;;
77217;SDS011;66214;51.302;17.068;2024-01-11T08:57:03;30.00;;;12.30;;
77217;SDS011;66214;51.302;17.068;2024-01-11T08:59:39;28.90;;;12.40;;
77217;SDS011;66214;51.302;17.068;2024-01-11T09:02:15;28.10;;;10.70;;
77217;SDS011;66214;51.302;17.068;2024-01-11T09:04:43;25.00;;;10.20;;
77217;SDS011;66214;51.302;17.068;2024-01-11T09:07:12;30.00;;;12.30;;
77217;SDS011;66214;51.302;17.068;2024-01-11T09:09:41;25.50;;;11.40;;
77217;SDS011;66214;51.302;17.068;2024-01-11T09:12:10;32.90;;;13.50;;
77217;SDS011;66214;51.302;17.068;2024-01-11T09:14:41;24.80;;;10.40;;
77217;SDS011;66214;51.302;17.068;2024-01-11T09:17:11;31.10;;;12.60;;
77217;SDS011;66214;51.302;17.068;2024-01-11T09:19:39;34.70;;;13.10;;
77217;SDS011;66214;51.302;17.068;2024-01-11T09:22:09;29.40;;;13.00;;
77217;SDS011;66214;51.302;17.068;2024-01-11T09:24:42;27.40;;;11.50;;
77217;SDS011;66214;51.302;17.068;2024-01-11T09:27:12;30.50;;;12.00;;
77217;SDS011;66214;51.302;17.068;2024-01-11T09:29:45;27.50;;;11.90;;
77217;SDS011;66214;51.302;17.068;2024-01-11T09:32:14;37.30;;;14.20;;
77217;SDS011;66214;51.302;17.068;2024-01-11T09:34:43;35.90;;;15.30;;
77217;SDS011;66214;51.302;17.068;2024-01-11T09:37:14;32.20;;;13.60;;
77217;SDS011;66214;51.302;17.068;2024-01-11T09:39:42;32.80;;;13.70;;
77217;SDS011;66214;51.302;17.068;2024-01-11T09:42:12;31.70;;;12.50;;
77217;SDS011;66214;51.302;17.068;2024-01-11T09:44:43;28.10;;;11.10;;
77217;SDS011;66214;51.302;17.068;2024-01-11T09:47:13;37.60;;;14.90;;
77217;SDS011;66214;51.302;17.068;2024-01-11T09:49:48;34.30;;;12.10;;
77217;SDS011;66214;51.302;17.068;2024-01-11T09:52:20;32.70;;;13.60;;
77217;SDS011;66214;51.302;17.068;2024-01-11T09:54:49;28.90;;;12.20;;
77217;SDS011;66214;51.302;17.068;2024-01-11T09:57:24;30.80;;;10.90;;
77217;SDS011;66214;51.302;17.068;2024-01-11T09:59:56;41.60;;;14.90;;
77217;SDS011;66214;51.302;17.068;2024-01-11T10:02:28;35.00;;;12.90;;
77217;SDS011;66214;51.302;17.068;2024-01-11T10:05:05;37.50;;;13.30;;
77217;SDS011;66214;51.302;17.068;2024-01-11T10:07:36;35.00;;;13.90;;
77217;SDS011;66214;51.302;17.068;2024-01-11T10:10:06;37.80;;;14.80;;
77217;SDS011;66214;51.302;17.068;2024-01-11T10:12:37;37.90;;;14.50;;
77217;SDS011;66214;51.302;17.068;2024-01-11T10:15:08;33.70;;;13.90;;
77217;SDS011;66214;51.302;17.068;2024-01-11T10:17:42;34.20;;;14.20;;
77217;SDS011;66214;51.302;17.068;2024-01-11T10:20:14;44.00;;;18.30;;
77217;SDS011;66214;51.302;17.068;2024-01-11T10:22:46;37.00;;;14.00;;
77217;SDS011;66214;51.302;17.068;2024-01-11T10:25:20;33.70;;;12.80;;
77217;SDS011;66214;51.302;17.068;2024-01-11T10:27:48;33.50;;;13.50;;
77217;SDS011;66214;51.302;17.068;2024-01-11T10:30:21;41.10;;;16.10;;
77217;SDS011;66214;51.302;17.068;2024-01-11T10:32:57;29.70;;;10.70;;
77217;SDS011;66214;51.302;17.068;2024-01-11T10:35:26;38.30;;;15.50;;
77217;SDS011;66214;51.302;17.068;2024-01-11T10:37:58;29.60;;;9.80;;
77217;SDS011;66214;51.302;17.068;2024-01-11T10:40:27;29.80;;;10.70;;
77217;SDS011;66214;51.302;17.068;2024-01-11T10:43:01;46.50;;;17.60;;
77217;SDS011;66214;51.302;17.068;2024-01-11T10:45:31;43.70;;;15.20;;
77217;SDS011;66214;51.302;17.068;2024-01-11T10:48:14;30.90;;;11.90;;
77217;SDS011;66214;51.302;17.068;2024-01-11T10:50:45;36.40;;;15.70;;
77217;SDS011;66214;51.302;17.068;2024-01-11T10:56:34;39.70;;;16.80;;
77217;SDS011;66214;51.302;17.068;2024-01-11T10:59:04;45.00;;;18.30;;
77217;SDS011;66214;51.302;17.068;2024-01-11T11:03:46;46.90;;;17.20;;
77217;SDS011;66214;51.302;17.068;2024-01-11T11:06:42;48.50;;;18.90;;
77217;SDS011;66214;51.302;17.068;2024-01-11T11:09:38;37.50;;;15.10;;
77217;SDS011;66214;51.302;17.068;2024-01-11T11:12:41;41.20;;;15.80;;
77217;SDS011;66214;51.302;17.068;2024-01-11T11:15:15;40.30;;;16.30;;
77217;SDS011;66214;51.302;17.068;2024-01-11T11:17:52;50.90;;;19.70;;
77217;SDS011;66214;51.302;17.068;2024-01-11T11:20:21;35.90;;;15.10;;
77217;SDS011;66214;51.302;17.068;2024-01-11T11:23:15;38.50;;;16.10;;
77217;SDS011;66214;51.302;17.068;2024-01-11T11:25:46;42.20;;;16.40;;
77217;SDS011;66214;51.302;17.068;2024-01-11T11:28:20;39.80;;;15.90;;
77217;SDS011;66214;51.302;17.068;2024-01-11T11:30:52;41.60;;;16.20;;
77217;SDS011;66214;51.302;17.068;2024-01-11T11:33:23;34.10;;;14.40;;
77217;SDS011;66214;51.302;17.068;2024-01-11T11:35:57;39.40;;;15.50;;
77217;SDS011;66214;51.302;17.068;2024-01-11T11:38:32;46.90;;;17.80;;
77217;SDS011;66214;51.302;17.068;2024-01-11T11:41:01;46.90;;;18.60;;
77217;SDS011;66214;51.302;17.068;2024-01-11T11:43:31;42.30;;;16.20;;
77217;SDS011;66214;51.302;17.068;2024-01-11T11:46:00;42.60;;;16.80;;
77217;SDS011;66214;51.302;17.068;2024-01-11T11:48:51;39.80;;;16.80;;
77217;SDS011;66214;51.302;17.068;2024-01-11T11:51:23;40.50;;;17.50;;
77217;SDS011;66214;51.302;17.068;2024-01-11T11:53:52;32.60;;;13.70;;
77217;SDS011;66214;51.302;17.068;2024-01-11T11:56:23;36.30;;;14.20;;
77217;SDS011;66214;51.302;17.068;2024-01-11T11:58:52;45.50;;;18.00;;
77217;SDS011;66214;51.302;17.068;2024-01-11T12:01:23;43.50;;;17.90;;
77217;SDS011;66214;51.302;17.068;2024-01-11T12:03:53;34.00;;;11.70;;
77217;SDS011;66214;51.302;17.068;2024-01-11T12:06:24;33.70;;;13.00;;
77217;SDS011;66214;51.302;17.068;2024-01-11T12:08:53;39.70;;;13.90;;
77217;SDS011;66214;51.302;17.068;2024-01-11T12:11:47;48.40;;;16.60;;
77217;SDS011;66214;51.302;17.068;2024-01-11T12:14:17;40.90;;;15.80;;
77217;SDS011;66214;51.302;17.068;2024-01-11T12:16:45;44.30;;;17.60;;
77217;SDS011;66214;51.302;17.068;2024-01-11T12:19:39;34.80;;;15.10;;
77217;SDS011;66214;51.302;17.068;2024-01-11T12:22:08;36.40;;;16.40;;
77217;SDS011;66214;51.302;17.068;2024-01-11T12:24:37;33.50;;;15.10;;
77217;SDS011;66214;51.302;17.068;2024-01-11T12:27:07;35.60;;;15.30;;
77217;SDS011;66214;51.302;17.068;2024-01-11T12:29:35;41.60;;;17.50;;
77217;SDS011;66214;51.302;17.068;2024-01-11T12:32:07;32.10;;;13.90;;
77217;SDS011;66214;51.302;17.068;2024-01-11T12:34:39;33.20;;;13.70;;
77217;SDS011;66214;51.302;17.068;2024-01-11T12:37:08;38.00;;;16.50;;
77217;SDS011;66214;51.302;17.068;2024-01-11T12:39:38;27.10;;;12.40;;
77217;SDS011;66214;51.302;17.068;2024-01-11T12:42:07;37.60;;;16.80;;
77217;SDS011;66214;51.302;17.068;2024-01-11T12:44:38;38.40;;;17.10;;
77217;SDS011;66214;51.302;17.068;2024-01-11T12:47:08;41.10;;;14.80;;
77217;SDS011;66214;51.302;17.068;2024-01-11T12:49:36;42.50;;;19.30;;
77217;SDS011;66214;51.302;17.068;2024-01-11T12:52:16;37.80;;;14.30;;
77217;SDS011;66214;51.302;17.068;2024-01-11T12:54:46;37.00;;;15.40;;
77217;SDS011;66214;51.302;17.068;2024-01-11T12:57:21;43.70;;;18.20;;
77217;SDS011;66214;51.302;17.068;2024-01-11T13:03:50;43.70;;;18.00;;
77217;SDS011;66214;51.302;17.068;2024-01-11T13:06:50;35.90;;;14.00;;
77217;SDS011;66214;51.302;17.068;2024-01-11T13:12:48;27.50;;;12.30;;
77217;SDS011;66214;51.302;17.068;2024-01-11T13:15:23;36.10;;;15.70;;
77217;SDS011;66214;51.302;17.068;2024-01-11T13:17:55;35.20;;;13.50;;
77217;SDS011;66214;51.302;17.068;2024-01-11T13:20:25;37.40;;;15.70;;
77217;SDS011;66214;51.302;17.068;2024-01-11T13:23:20;36.00;;;16.60;;
77217;SDS011;66214;51.302;17.068;2024-01-11T13:32:40;35.00;;;14.80;;
77217;SDS011;66214;51.302;17.068;2024-01-11T13:35:15;23.60;;;10.40;;
77217;SDS011;66214;51.302;17.068;2024-01-11T13:38:13;29.80;;;13.40;;
77217;SDS011;66214;51.302;17.068;2024-01-11T13:40:42;40.10;;;14.90;;
77217;SDS011;66214;51.302;17.068;2024-01-11T13:43:13;26.20;;;11.90;;
77217;SDS011;66214;51.302;17.068;2024-01-11T13:45:43;25.60;;;9.80;;
77217;SDS011;66214;51.302;17.068;2024-01-11T13:48:13;20.60;;;8.10;;
77217;SDS011;66214;51.302;17.068;2024-01-11T13:51:08;24.30;;;9.40;;
77217;SDS011;66214;51.302;17.068;2024-01-11T13:57:16;33.00;;;13.30;;
77217;SDS011;66214;51.302;17.068;2024-01-11T14:03:42;29.10;;;13.00;;
77217;SDS011;66214;51.302;17.068;2024-01-11T14:06:13;35.60;;;15.40;;
77217;SDS011;66214;51.302;17.068;2024-01-11T14:08:43;25.50;;;11.20;;
77217;SDS011;66214;51.302;17.068;2024-01-11T14:14:43;27.40;;;12.20;;
77217;SDS011;66214;51.302;17.068;2024-01-11T14:17:39;32.40;;;12.80;;
77217;SDS011;66214;51.302;17.068;2024-01-11T14:20:11;40.10;;;16.40;;
77217;SDS011;66214;51.302;17.068;2024-01-11T14:22:42;28.80;;;12.90;;
77217;SDS011;66214;51.302;17.068;2024-01-11T14:25:19;40.60;;;15.40;;
77217;SDS011;66214;51.302;17.068;2024-01-11T14:27:49;43.20;;;17.90;;
77217;SDS011;66214;51.302;17.068;2024-01-11T14:30:19;25.70;;;10.00;;
77217;SDS011;66214;51.302;17.068;2024-01-11T14:32:50;48.80;;;18.00;;
77217;SDS011;66214;51.302;17.068;2024-01-11T14:35:20;39.70;;;14.70;;
77217;SDS011;66214;51.302;17.068;2024-01-11T14:37:49;20.40;;;8.50;;
77217;SDS011;66214;51.302;17.068;2024-01-11T14:40:18;45.70;;;16.60;;
77217;SDS011;66214;51.302;17.068;2024-01-11T14:42:48;43.40;;;17.20;;
77217;SDS011;66214;51.302;17.068;2024-01-11T14:45:18;30.20;;;13.50;;
77217;SDS011;66214;51.302;17.068;2024-01-11T14:47:47;33.60;;;12.80;;
77217;SDS011;66214;51.302;17.068;2024-01-11T14:50:16;37.50;;;15.00;;
77217;SDS011;66214;51.302;17.068;2024-01-11T14:52:46;30.50;;;11.80;;
77217;SDS011;66214;51.302;17.068;2024-01-11T14:55:15;32.70;;;11.00;;
77217;SDS011;66214;51.302;17.068;2024-01-11T14:57:45;38.30;;;14.70;;
77217;SDS011;66214;51.302;17.068;2024-01-11T15:00:13;37.40;;;14.40;;
77217;SDS011;66214;51.302;17.068;2024-01-11T15:02:45;23.00;;;7.70;;
77217;SDS011;66214;51.302;17.068;2024-01-11T15:05:15;30.70;;;11.60;;
77217;SDS011;66214;51.302;17.068;2024-01-11T15:07:46;32.60;;;12.40;;
77217;SDS011;66214;51.302;17.068;2024-01-11T15:10:15;69.90;;;26.40;;
77217;SDS011;66214;51.302;17.068;2024-01-11T15:12:46;37.70;;;16.00;;
77217;SDS011;66214;51.302;17.068;2024-01-11T15:15:15;36.10;;;13.90;;
77217;SDS011;66214;51.302;17.068;2024-01-11T15:17:44;19.10;;;7.50;;
77217;SDS011;66214;51.302;17.068;2024-01-11T17:03:42;22.20;;;9.00;;
77217;SDS011;66214;51.302;17.068;2024-01-11T17:06:12;23.70;;;9.40;;
77217;SDS011;66214;51.302;17.068;2024-01-11T17:08:48;23.30;;;9.30;;
77217;SDS011;66214;51.302;17.068;2024-01-11T17:11:17;19.40;;;8.40;;
77217;SDS011;66214;51.302;17.068;2024-01-11T17:13:48;19.70;;;7.90;;
77217;SDS011;66214;51.302;17.068;2024-01-11T17:16:19;18.90;;;8.10;;
77217;SDS011;66214;51.302;17.068;2024-01-11T17:18:54;26.40;;;12.00;;
77217;SDS011;66214;51.302;17.068;2024-01-11T17:21:23;27.50;;;10.30;;
77217;SDS011;66214;51.302;17.068;2024-01-11T17:23:53;23.20;;;9.10;;
77217;SDS011;66214;51.302;17.068;2024-01-11T17:26:24;26.80;;;12.50;;
77217;SDS011;66214;51.302;17.068;2024-01-11T17:28:53;30.40;;;10.20;;
77217;SDS011;66214;51.302;17.068;2024-01-11T17:31:50;25.30;;;9.20;;
77217;SDS011;66214;51.302;17.068;2024-01-11T17:34:18;20.20;;;7.80;;
77217;SDS011;66214;51.302;17.068;2024-01-11T17:36:49;18.40;;;7.80;;
77217;SDS011;66214;51.302;17.068;2024-01-11T17:39:17;20.40;;;7.50;;
77217;SDS011;66214;51.302;17.068;2024-01-11T17:42:15;24.10;;;8.70;;
77217;SDS011;66214;51.302;17.068;2024-01-11T17:44:44;20.60;;;7.20;;
77217;SDS011;66214;51.302;17.068;2024-01-11T17:47:16;18.30;;;7.60;;
77217;SDS011;66214;51.302;17.068;2024-01-11T17:49:44;23.70;;;9.40;;
77217;SDS011;66214;51.302;17.068;2024-01-11T17:52:14;18.60;;;7.50;;
77217;SDS011;66214;51.302;17.068;2024-01-11T17:54:42;19.70;;;8.20;;
77217;SDS011;66214;51.302;17.068;2024-01-11T17:57:16;19.70;;;8.80;;
77217;SDS011;66214;51.302;17.068;2024-01-11T17:59:44;22.00;;;9.20;;
77217;SDS011;66214;51.302;17.068;2024-01-11T18:02:18;19.70;;;8.90;;
77217;SDS011;66214;51.302;17.068;2024-01-11T18:04:46;21.50;;;7.90;;
77217;SDS011;66214;51.302;17.068;2024-01-11T18:07:16;16.30;;;6.60;;
77217;SDS011;66214;51.302;17.068;2024-01-11T18:09:45;19.20;;;8.30;;
77217;SDS011;66214;51.302;17.068;2024-01-11T18:12:14;20.50;;;8.10;;
77217;SDS011;66214;51.302;17.068;2024-01-11T22:03:42;23.80;;;10.80;;
77217;SDS011;66214;51.302;17.068;2024-01-11T22:06:13;25.70;;;10.30;;
77217;SDS011;66214;51.302;17.068;2024-01-11T22:08:41;22.50;;;9.20;;
77217;SDS011;66214;51.302;17.068;2024-01-11T22:11:09;24.90;;;10.70;;
77217;SDS011;66214;51.302;17.068;2024-01-11T22:13:37;29.70;;;11.90;;
77217;SDS011;66214;51.302;17.068;2024-01-11T22:16:05;21.30;;;8.50;;
77217;SDS011;66214;51.302;17.068;2024-01-11T22:18:35;22.60;;;9.70;;
77217;SDS011;66214;51.302;17.068;2024-01-11T22:21:04;22.00;;;9.70;;
77217;SDS011;66214;51.302;17.068;2024-01-11T22:23:33;16.40;;;7.20;;
77217;SDS011;66214;51.302;17.068;2024-01-11T22:26:01;23.80;;;10.10;;
77217;SDS011;66214;51.302;17.068;2024-01-11T22:31:44;25.80;;;10.60;;